sensor_id;sensor_type;location;lat;lon;timestamp;temperature;humidity
11569;DHT22;5840;46.894;15.542;2022-11-14T00:01:58;7.70;99.90
11569;DHT22;5840;46.894;15.542;2022-11-14T00:04:25;7.70;99.90
11569;DHT22;5840;46.894;15.542;2022-11-14T00:06:52;7.70;99.90
11569;DHT22;5840;46.894;15.542;2022-11-14T00:09:19;7.60;99.90
11569;DHT22;5840;46.894;15.542;2022-11-14T00:11:47;7.60;99.90
11569;DHT22;5840;46.894;15.542;2022-11-14T00:14:14;7.50;99.90
11569;DHT22;5840;46.894;15.542;2022-11-14T00:16:41;7.50;99.90
11569;DHT22;5840;46.894;15.542;2022-11-14T00:19:08;7.50;99.90
11569;DHT22;5840;46.894;15.542;2022-11-14T00:21:35;7.50;99.90
11569;DHT22;5840;46.894;15.542;2022-11-14T00:24:02;7.50;99.90
11569;DHT22;5840;46.894;15.542;2022-11-14T00:26:29;7.50;99.90
11569;DHT22;5840;46.894;15.542;2022-11-14T00:28:57;7.50;99.90
11569;DHT22;5840;46.894;15.542;2022-11-14T00:31:24;7.50;99.90
11569;DHT22;5840;46.894;15.542;2022-11-14T00:33:51;7.60;99.90
11569;DHT22;5840;46.894;15.542;2022-11-14T00:36:18;7.60;99.90
11569;DHT22;5840;46.894;15.542;2022-11-14T00:38:45;7.60;99.90
11569;DHT22;5840;46.894;15.542;2022-11-14T00:41:12;7.60;99.90
11569;DHT22;5840;46.894;15.542;2022-11-14T00:43:39;7.50;99.90
11569;DHT22;5840;46.894;15.542;2022-11-14T00:46:07;7.50;99.90
11569;DHT22;5840;46.894;15.542;2022-11-14T00:48:34;7.50;99.90
11569;DHT22;5840;46.894;15.542;2022-11-14T00:51:01;7.50;99.90
11569;DHT22;5840;46.894;15.542;2022-11-14T00:53:28;7.40;99.90
11569;DHT22;5840;46.894;15.542;2022-11-14T00:55:55;7.40;99.90
11569;DHT22;5840;46.894;15.542;2022-11-14T00:58:22;7.40;99.90
11569;DHT22;5840;46.894;15.542;2022-11-14T01:00:50;7.30;99.90
11569;DHT22;5840;46.894;15.542;2022-11-14T01:03:18;7.30;99.90
11569;DHT22;5840;46.894;15.542;2022-11-14T01:05:47;7.30;99.90
11569;DHT22;5840;46.894;15.542;2022-11-14T01:08:15;7.30;99.90
11569;DHT22;5840;46.894;15.542;2022-11-14T01:10:44;7.20;99.90
11569;DHT22;5840;46.894;15.542;2022-11-14T01:13:12;7.20;99.90
11569;DHT22;5840;46.894;15.542;2022-11-14T01:15:40;7.20;99.90
11569;DHT22;5840;46.894;15.542;2022-11-14T01:18:08;7.30;99.90
11569;DHT22;5840;46.894;15.542;2022-11-14T01:20:39;7.30;99.90
11569;DHT22;5840;46.894;15.542;2022-11-14T01:23:06;7.40;99.90
11569;DHT22;5840;46.894;15.542;2022-11-14T01:25:33;7.40;99.90
11569;DHT22;5840;46.894;15.542;2022-11-14T01:28:00;7.40;99.90
11569;DHT22;5840;46.894;15.542;2022-11-14T01:30:27;7.50;99.90
11569;DHT22;5840;46.894;15.542;2022-11-14T01:32:54;7.50;99.90
11569;DHT22;5840;46.894;15.542;2022-11-14T01:35:21;7.40;99.90
11569;DHT22;5840;46.894;15.542;2022-11-14T01:37:49;7.40;99.90
11569;DHT22;5840;46.894;15.542;2022-11-14T01:40:16;7.40;99.90
11569;DHT22;5840;46.894;15.542;2022-11-14T01:45:58;7.40;99.90
11569;DHT22;5840;46.894;15.542;2022-11-14T01:48:29;7.40;99.90
11569;DHT22;5840;46.894;15.542;2022-11-14T01:51:00;7.40;99.90
11569;DHT22;5840;46.894;15.542;2022-11-14T01:53:30;7.40;99.90
11569;DHT22;5840;46.894;15.542;2022-11-14T01:56:00;7.30;99.90
11569;DHT22;5840;46.894;15.542;2022-11-14T01:58:29;7.30;99.90
11569;DHT22;5840;46.894;15.542;2022-11-14T02:00:57;7.30;99.90
11569;DHT22;5840;46.894;15.542;2022-11-14T02:03:25;7.30;99.90
11569;DHT22;5840;46.894;15.542;2022-11-14T02:05:52;7.30;99.90
11569;DHT22;5840;46.894;15.542;2022-11-14T02:08:20;7.30;99.90
11569;DHT22;5840;46.894;15.542;2022-11-14T02:10:49;7.40;99.90
11569;DHT22;5840;46.894;15.542;2022-11-14T02:13:16;7.30;99.90
11569;DHT22;5840;46.894;15.542;2022-11-14T02:15:43;7.30;99.90
11569;DHT22;5840;46.894;15.542;2022-11-14T02:18:10;7.30;99.90
11569;DHT22;5840;46.894;15.542;2022-11-14T02:20:39;7.30;99.90
11569;DHT22;5840;46.894;15.542;2022-11-14T02:23:09;7.30;99.90
11569;DHT22;5840;46.894;15.542;2022-11-14T02:25:37;7.30;99.90
11569;DHT22;5840;46.894;15.542;2022-11-14T02:28:06;7.30;99.90
11569;DHT22;5840;46.894;15.542;2022-11-14T02:30:35;7.30;99.90
11569;DHT22;5840;46.894;15.542;2022-11-14T02:33:02;7.30;99.90
11569;DHT22;5840;46.894;15.542;2022-11-14T02:35:29;7.30;99.90
11569;DHT22;5840;46.894;15.542;2022-11-14T02:37:57;7.30;99.90
11569;DHT22;5840;46.894;15.542;2022-11-14T02:40:24;7.30;99.90
11569;DHT22;5840;46.894;15.542;2022-11-14T02:42:51;7.30;99.90
11569;DHT22;5840;46.894;15.542;2022-11-14T02:45:18;7.30;99.90
11569;DHT22;5840;46.894;15.542;2022-11-14T02:47:45;7.30;99.90
11569;DHT22;5840;46.894;15.542;2022-11-14T02:50:12;7.30;99.90
11569;DHT22;5840;46.894;15.542;2022-11-14T02:52:39;7.30;99.90
11569;DHT22;5840;46.894;15.542;2022-11-14T02:55:08;7.30;99.90
11569;DHT22;5840;46.894;15.542;2022-11-14T02:57:36;7.30;99.90
11569;DHT22;5840;46.894;15.542;2022-11-14T03:00:03;7.30;99.90
11569;DHT22;5840;46.894;15.542;2022-11-14T03:02:31;7.30;99.90
11569;DHT22;5840;46.894;15.542;2022-11-14T03:04:57;7.30;99.90
11569;DHT22;5840;46.894;15.542;2022-11-14T03:07:24;7.30;99.90
11569;DHT22;5840;46.894;15.542;2022-11-14T03:09:51;7.30;99.90
11569;DHT22;5840;46.894;15.542;2022-11-14T03:12:20;7.30;99.90
11569;DHT22;5840;46.894;15.542;2022-11-14T03:14:47;7.30;99.90
11569;DHT22;5840;46.894;15.542;2022-11-14T03:17:13;7.30;99.90
11569;DHT22;5840;46.894;15.542;2022-11-14T03:19:40;7.30;99.90
11569;DHT22;5840;46.894;15.542;2022-11-14T03:22:07;7.30;99.90
11569;DHT22;5840;46.894;15.542;2022-11-14T03:24:34;7.30;99.90
11569;DHT22;5840;46.894;15.542;2022-11-14T03:27:01;7.30;99.90
11569;DHT22;5840;46.894;15.542;2022-11-14T03:29:29;7.30;99.90
11569;DHT22;5840;46.894;15.542;2022-11-14T03:31:56;7.20;99.90
11569;DHT22;5840;46.894;15.542;2022-11-14T03:34:23;7.20;99.90
11569;DHT22;5840;46.894;15.542;2022-11-14T03:36:50;7.20;99.90
11569;DHT22;5840;46.894;15.542;2022-11-14T03:39:17;7.10;99.90
11569;DHT22;5840;46.894;15.542;2022-11-14T03:41:44;7.10;99.90
11569;DHT22;5840;46.894;15.542;2022-11-14T03:44:11;7.10;99.90
11569;DHT22;5840;46.894;15.542;2022-11-14T03:46:39;7.10;99.90
11569;DHT22;5840;46.894;15.542;2022-11-14T03:49:06;7.10;99.90
11569;DHT22;5840;46.894;15.542;2022-11-14T03:51:33;7.00;99.90
11569;DHT22;5840;46.894;15.542;2022-11-14T03:54:00;7.00;99.90
11569;DHT22;5840;46.894;15.542;2022-11-14T03:56:27;7.00;99.90
11569;DHT22;5840;46.894;15.542;2022-11-14T03:58:54;7.00;99.90
11569;DHT22;5840;46.894;15.542;2022-11-14T04:01:21;7.00;99.90
11569;DHT22;5840;46.894;15.542;2022-11-14T04:03:49;7.00;99.90
11569;DHT22;5840;46.894;15.542;2022-11-14T04:06:16;7.00;99.90
11569;DHT22;5840;46.894;15.542;2022-11-14T04:08:43;7.00;99.90
11569;DHT22;5840;46.894;15.542;2022-11-14T04:11:10;7.00;99.90
11569;DHT22;5840;46.894;15.542;2022-11-14T04:13:37;7.00;99.90
11569;DHT22;5840;46.894;15.542;2022-11-14T04:16:04;7.00;99.90
11569;DHT22;5840;46.894;15.542;2022-11-14T04:18:31;7.00;99.90
11569;DHT22;5840;46.894;15.542;2022-11-14T04:20:59;7.00;99.90
11569;DHT22;5840;46.894;15.542;2022-11-14T04:23:26;7.00;99.90
11569;DHT22;5840;46.894;15.542;2022-11-14T04:25:53;7.00;99.90
11569;DHT22;5840;46.894;15.542;2022-11-14T04:28:20;7.00;99.90
11569;DHT22;5840;46.894;15.542;2022-11-14T04:30:47;7.00;99.90
11569;DHT22;5840;46.894;15.542;2022-11-14T04:33:14;7.10;99.90
11569;DHT22;5840;46.894;15.542;2022-11-14T04:35:40;7.10;99.90
11569;DHT22;5840;46.894;15.542;2022-11-14T04:38:09;7.10;99.90
11569;DHT22;5840;46.894;15.542;2022-11-14T04:40:36;7.10;99.90
11569;DHT22;5840;46.894;15.542;2022-11-14T04:43:03;7.10;99.90
11569;DHT22;5840;46.894;15.542;2022-11-14T04:45:30;7.20;99.90
11569;DHT22;5840;46.894;15.542;2022-11-14T04:47:57;7.20;99.90
11569;DHT22;5840;46.894;15.542;2022-11-14T04:50:24;7.20;99.90
11569;DHT22;5840;46.894;15.542;2022-11-14T04:52:51;7.20;99.90
11569;DHT22;5840;46.894;15.542;2022-11-14T04:55:20;7.20;99.90
11569;DHT22;5840;46.894;15.542;2022-11-14T04:57:47;7.20;99.90
11569;DHT22;5840;46.894;15.542;2022-11-14T05:00:18;7.20;99.90
11569;DHT22;5840;46.894;15.542;2022-11-14T05:02:45;7.20;99.90
11569;DHT22;5840;46.894;15.542;2022-11-14T05:05:12;7.20;99.90
11569;DHT22;5840;46.894;15.542;2022-11-14T05:07:39;7.20;99.90
11569;DHT22;5840;46.894;15.542;2022-11-14T05:10:08;7.10;99.90
11569;DHT22;5840;46.894;15.542;2022-11-14T05:12:36;7.10;99.90
11569;DHT22;5840;46.894;15.542;2022-11-14T05:15:03;7.10;99.90
11569;DHT22;5840;46.894;15.542;2022-11-14T05:17:30;7.10;99.90
11569;DHT22;5840;46.894;15.542;2022-11-14T05:19:57;7.10;99.90
11569;DHT22;5840;46.894;15.542;2022-11-14T05:22:24;7.10;99.90
11569;DHT22;5840;46.894;15.542;2022-11-14T05:24:51;7.10;99.90
11569;DHT22;5840;46.894;15.542;2022-11-14T05:27:18;7.10;99.90
11569;DHT22;5840;46.894;15.542;2022-11-14T05:29:46;7.10;99.90
11569;DHT22;5840;46.894;15.542;2022-11-14T05:32:13;7.10;99.90
11569;DHT22;5840;46.894;15.542;2022-11-14T05:34:41;7.10;99.90
11569;DHT22;5840;46.894;15.542;2022-11-14T05:37:08;7.10;99.90
11569;DHT22;5840;46.894;15.542;2022-11-14T05:39:35;7.10;99.90
11569;DHT22;5840;46.894;15.542;2022-11-14T05:42:02;7.10;99.90
11569;DHT22;5840;46.894;15.542;2022-11-14T05:44:29;7.10;99.90
11569;DHT22;5840;46.894;15.542;2022-11-14T05:46:57;7.10;99.90
11569;DHT22;5840;46.894;15.542;2022-11-14T05:49:24;7.10;99.90
11569;DHT22;5840;46.894;15.542;2022-11-14T05:51:51;7.10;99.90
11569;DHT22;5840;46.894;15.542;2022-11-14T05:54:18;7.10;99.90
11569;DHT22;5840;46.894;15.542;2022-11-14T05:56:45;7.00;99.90
11569;DHT22;5840;46.894;15.542;2022-11-14T05:59:11;7.00;99.90
11569;DHT22;5840;46.894;15.542;2022-11-14T06:01:38;7.00;99.90
11569;DHT22;5840;46.894;15.542;2022-11-14T06:04:07;7.10;99.90
11569;DHT22;5840;46.894;15.542;2022-11-14T06:06:34;7.10;99.90
11569;DHT22;5840;46.894;15.542;2022-11-14T06:09:01;7.10;99.90
11569;DHT22;5840;46.894;15.542;2022-11-14T06:11:27;7.10;99.90
11569;DHT22;5840;46.894;15.542;2022-11-14T06:13:54;7.20;99.90
11569;DHT22;5840;46.894;15.542;2022-11-14T06:16:21;7.20;99.90
11569;DHT22;5840;46.894;15.542;2022-11-14T06:18:51;7.20;99.90
11569;DHT22;5840;46.894;15.542;2022-11-14T06:21:21;7.20;99.90
11569;DHT22;5840;46.894;15.542;2022-11-14T06:23:49;7.20;99.90
11569;DHT22;5840;46.894;15.542;2022-11-14T06:26:20;7.30;99.90
11569;DHT22;5840;46.894;15.542;2022-11-14T06:28:47;7.30;99.90
11569;DHT22;5840;46.894;15.542;2022-11-14T06:31:14;7.30;99.90
11569;DHT22;5840;46.894;15.542;2022-11-14T06:33:41;7.20;99.90
11569;DHT22;5840;46.894;15.542;2022-11-14T06:36:09;7.20;99.90
11569;DHT22;5840;46.894;15.542;2022-11-14T06:38:39;7.20;99.90
11569;DHT22;5840;46.894;15.542;2022-11-14T06:41:08;7.20;99.90
11569;DHT22;5840;46.894;15.542;2022-11-14T06:43:36;7.20;99.90
11569;DHT22;5840;46.894;15.542;2022-11-14T06:46:05;7.20;99.90
11569;DHT22;5840;46.894;15.542;2022-11-14T06:48:32;7.20;99.90
11569;DHT22;5840;46.894;15.542;2022-11-14T06:51:00;7.30;99.90
11569;DHT22;5840;46.894;15.542;2022-11-14T06:53:29;7.30;99.90
11569;DHT22;5840;46.894;15.542;2022-11-14T06:55:59;7.30;99.90
11569;DHT22;5840;46.894;15.542;2022-11-14T06:58:27;7.30;99.90
11569;DHT22;5840;46.894;15.542;2022-11-14T07:00:54;7.40;99.90
11569;DHT22;5840;46.894;15.542;2022-11-14T07:03:21;7.40;99.90
11569;DHT22;5840;46.894;15.542;2022-11-14T07:05:48;7.40;99.90
11569;DHT22;5840;46.894;15.542;2022-11-14T07:08:15;7.40;99.90
11569;DHT22;5840;46.894;15.542;2022-11-14T07:10:42;7.30;99.90
11569;DHT22;5840;46.894;15.542;2022-11-14T07:13:10;7.40;99.90
11569;DHT22;5840;46.894;15.542;2022-11-14T07:15:37;7.40;99.90
11569;DHT22;5840;46.894;15.542;2022-11-14T07:18:04;7.40;99.90
11569;DHT22;5840;46.894;15.542;2022-11-14T07:20:31;7.40;99.90
11569;DHT22;5840;46.894;15.542;2022-11-14T07:22:58;7.40;99.90
11569;DHT22;5840;46.894;15.542;2022-11-14T07:25:25;7.30;99.90
11569;DHT22;5840;46.894;15.542;2022-11-14T07:27:52;7.40;99.90
11569;DHT22;5840;46.894;15.542;2022-11-14T07:30:20;7.40;99.90
11569;DHT22;5840;46.894;15.542;2022-11-14T07:32:53;7.40;99.90
11569;DHT22;5840;46.894;15.542;2022-11-14T07:35:21;7.40;99.90
11569;DHT22;5840;46.894;15.542;2022-11-14T07:37:48;7.40;99.90
11569;DHT22;5840;46.894;15.542;2022-11-14T07:40:17;7.40;99.90
11569;DHT22;5840;46.894;15.542;2022-11-14T07:42:44;7.50;99.90
11569;DHT22;5840;46.894;15.542;2022-11-14T07:45:11;7.50;99.90
11569;DHT22;5840;46.894;15.542;2022-11-14T07:47:39;7.50;99.90
11569;DHT22;5840;46.894;15.542;2022-11-14T07:50:07;7.50;99.90
11569;DHT22;5840;46.894;15.542;2022-11-14T07:52:34;7.60;99.90
11569;DHT22;5840;46.894;15.542;2022-11-14T07:55:01;7.60;99.90
11569;DHT22;5840;46.894;15.542;2022-11-14T07:57:27;7.60;99.90
11569;DHT22;5840;46.894;15.542;2022-11-14T07:59:54;7.60;99.90
11569;DHT22;5840;46.894;15.542;2022-11-14T08:02:21;7.70;99.90
11569;DHT22;5840;46.894;15.542;2022-11-14T08:04:50;7.70;99.90
11569;DHT22;5840;46.894;15.542;2022-11-14T08:07:16;7.70;99.90
11569;DHT22;5840;46.894;15.542;2022-11-14T08:09:43;7.80;99.90
11569;DHT22;5840;46.894;15.542;2022-11-14T08:12:14;7.80;99.90
11569;DHT22;5840;46.894;15.542;2022-11-14T08:14:42;7.90;99.90
11569;DHT22;5840;46.894;15.542;2022-11-14T08:17:09;7.90;99.90
11569;DHT22;5840;46.894;15.542;2022-11-14T08:19:36;7.90;99.90
11569;DHT22;5840;46.894;15.542;2022-11-14T08:22:05;8.00;99.90
11569;DHT22;5840;46.894;15.542;2022-11-14T08:24:32;8.10;99.90
11569;DHT22;5840;46.894;15.542;2022-11-14T08:26:59;8.10;99.90
11569;DHT22;5840;46.894;15.542;2022-11-14T08:29:26;8.20;99.90
11569;DHT22;5840;46.894;15.542;2022-11-14T08:31:53;8.20;99.90
11569;DHT22;5840;46.894;15.542;2022-11-14T08:34:20;8.30;99.90
11569;DHT22;5840;46.894;15.542;2022-11-14T08:36:48;8.30;99.90
11569;DHT22;5840;46.894;15.542;2022-11-14T08:39:16;8.50;99.90
11569;DHT22;5840;46.894;15.542;2022-11-14T08:41:43;8.60;99.90
11569;DHT22;5840;46.894;15.542;2022-11-14T08:44:10;9.00;99.90
11569;DHT22;5840;46.894;15.542;2022-11-14T08:46:39;9.30;99.90
11569;DHT22;5840;46.894;15.542;2022-11-14T08:49:07;9.50;99.90
11569;DHT22;5840;46.894;15.542;2022-11-14T08:51:34;9.80;99.90
11569;DHT22;5840;46.894;15.542;2022-11-14T08:54:01;9.80;99.90
11569;DHT22;5840;46.894;15.542;2022-11-14T08:56:30;10.10;99.90
11569;DHT22;5840;46.894;15.542;2022-11-14T08:58:56;10.40;99.90
11569;DHT22;5840;46.894;15.542;2022-11-14T09:01:26;10.90;99.90
11569;DHT22;5840;46.894;15.542;2022-11-14T09:03:57;11.30;99.90
11569;DHT22;5840;46.894;15.542;2022-11-14T09:06:24;11.80;99.90
11569;DHT22;5840;46.894;15.542;2022-11-14T09:08:51;12.20;99.90
11569;DHT22;5840;46.894;15.542;2022-11-14T09:11:18;12.40;99.90
11569;DHT22;5840;46.894;15.542;2022-11-14T09:13:46;12.60;99.90
11569;DHT22;5840;46.894;15.542;2022-11-14T09:16:13;12.70;99.90
11569;DHT22;5840;46.894;15.542;2022-11-14T09:18:40;12.80;99.90
11569;DHT22;5840;46.894;15.542;2022-11-14T09:21:08;13.00;99.90
11569;DHT22;5840;46.894;15.542;2022-11-14T09:23:35;13.20;99.90
11569;DHT22;5840;46.894;15.542;2022-11-14T09:26:03;13.40;99.90
11569;DHT22;5840;46.894;15.542;2022-11-14T09:28:30;13.70;99.90
11569;DHT22;5840;46.894;15.542;2022-11-14T09:31:02;13.90;99.90
11569;DHT22;5840;46.894;15.542;2022-11-14T09:33:30;14.00;99.90
11569;DHT22;5840;46.894;15.542;2022-11-14T09:35:57;14.20;99.90
11569;DHT22;5840;46.894;15.542;2022-11-14T09:38:24;14.30;99.90
11569;DHT22;5840;46.894;15.542;2022-11-14T09:40:59;14.60;99.90
11569;DHT22;5840;46.894;15.542;2022-11-14T09:43:41;14.80;99.90
11569;DHT22;5840;46.894;15.542;2022-11-14T09:46:18;15.00;99.90
11569;DHT22;5840;46.894;15.542;2022-11-14T09:48:46;15.10;99.90
11569;DHT22;5840;46.894;15.542;2022-11-14T09:51:16;15.30;99.90
11569;DHT22;5840;46.894;15.542;2022-11-14T09:53:50;15.40;99.90
11569;DHT22;5840;46.894;15.542;2022-11-14T09:56:21;15.50;99.90
11569;DHT22;5840;46.894;15.542;2022-11-14T09:58:50;15.70;99.90
11569;DHT22;5840;46.894;15.542;2022-11-14T10:01:27;15.70;99.90
11569;DHT22;5840;46.894;15.542;2022-11-14T10:04:02;15.70;99.90
11569;DHT22;5840;46.894;15.542;2022-11-14T10:06:32;15.80;99.90
11569;DHT22;5840;46.894;15.542;2022-11-14T10:09:26;15.60;99.90
11569;DHT22;5840;46.894;15.542;2022-11-14T10:11:58;15.80;99.90
11569;DHT22;5840;46.894;15.542;2022-11-14T10:14:44;15.60;99.90
11569;DHT22;5840;46.894;15.542;2022-11-14T10:17:28;15.70;99.90
11569;DHT22;5840;46.894;15.542;2022-11-14T10:20:10;15.90;99.90
11569;DHT22;5840;46.894;15.542;2022-11-14T10:22:53;15.90;99.90
11569;DHT22;5840;46.894;15.542;2022-11-14T10:25:25;15.90;99.90
11569;DHT22;5840;46.894;15.542;2022-11-14T10:28:04;15.40;99.90
11569;DHT22;5840;46.894;15.542;2022-11-14T10:30:38;15.00;99.90
11569;DHT22;5840;46.894;15.542;2022-11-14T10:33:21;15.00;99.90
11569;DHT22;5840;46.894;15.542;2022-11-14T10:35:54;15.10;99.90
11569;DHT22;5840;46.894;15.542;2022-11-14T10:38:26;15.20;99.90
11569;DHT22;5840;46.894;15.542;2022-11-14T10:40:59;15.10;99.90
11569;DHT22;5840;46.894;15.542;2022-11-14T10:43:31;14.90;99.90
11569;DHT22;5840;46.894;15.542;2022-11-14T10:46:04;14.80;99.90
11569;DHT22;5840;46.894;15.542;2022-11-14T10:48:37;14.60;99.90
11569;DHT22;5840;46.894;15.542;2022-11-14T10:51:10;14.60;99.90
11569;DHT22;5840;46.894;15.542;2022-11-14T10:53:45;14.90;99.90
11569;DHT22;5840;46.894;15.542;2022-11-14T10:56:15;15.00;99.90
11569;DHT22;5840;46.894;15.542;2022-11-14T10:58:43;15.20;99.90
11569;DHT22;5840;46.894;15.542;2022-11-14T11:01:30;15.50;99.90
11569;DHT22;5840;46.894;15.542;2022-11-14T11:06:57;16.00;99.90
11569;DHT22;5840;46.894;15.542;2022-11-14T11:10:00;16.20;99.90
11569;DHT22;5840;46.894;15.542;2022-11-14T11:12:46;16.30;99.90
11569;DHT22;5840;46.894;15.542;2022-11-14T11:15:17;16.20;99.90
11569;DHT22;5840;46.894;15.542;2022-11-14T11:17:54;16.30;99.90
11569;DHT22;5840;46.894;15.542;2022-11-14T11:20:27;16.30;99.90
11569;DHT22;5840;46.894;15.542;2022-11-14T11:23:01;16.30;99.90
11569;DHT22;5840;46.894;15.542;2022-11-14T11:25:30;16.40;99.90
11569;DHT22;5840;46.894;15.542;2022-11-14T11:28:08;16.20;99.90
11569;DHT22;5840;46.894;15.542;2022-11-14T11:30:36;16.30;99.90
11569;DHT22;5840;46.894;15.542;2022-11-14T11:33:21;16.20;99.90
11569;DHT22;5840;46.894;15.542;2022-11-14T11:35:53;16.10;99.90
11569;DHT22;5840;46.894;15.542;2022-11-14T11:38:24;15.90;99.90
11569;DHT22;5840;46.894;15.542;2022-11-14T11:40:55;15.90;99.90
11569;DHT22;5840;46.894;15.542;2022-11-14T11:43:29;16.00;99.90
11569;DHT22;5840;46.894;15.542;2022-11-14T11:45:58;16.10;99.90
11569;DHT22;5840;46.894;15.542;2022-11-14T11:48:33;16.20;99.90
11569;DHT22;5840;46.894;15.542;2022-11-14T11:51:08;16.30;99.90
11569;DHT22;5840;46.894;15.542;2022-11-14T11:53:38;16.30;99.90
11569;DHT22;5840;46.894;15.542;2022-11-14T11:56:10;16.20;99.90
11569;DHT22;5840;46.894;15.542;2022-11-14T11:58:43;16.20;99.90
11569;DHT22;5840;46.894;15.542;2022-11-14T12:01:12;16.20;99.90
11569;DHT22;5840;46.894;15.542;2022-11-14T12:03:46;16.10;99.90
11569;DHT22;5840;46.894;15.542;2022-11-14T12:06:17;16.00;99.90
11569;DHT22;5840;46.894;15.542;2022-11-14T12:09:01;15.90;99.90
11569;DHT22;5840;46.894;15.542;2022-11-14T12:11:32;15.70;99.90
11569;DHT22;5840;46.894;15.542;2022-11-14T12:17:31;15.40;99.90
11569;DHT22;5840;46.894;15.542;2022-11-14T12:20:18;15.30;99.90
11569;DHT22;5840;46.894;15.542;2022-11-14T12:23:06;15.30;99.90
11569;DHT22;5840;46.894;15.542;2022-11-14T12:25:54;15.10;99.90
11569;DHT22;5840;46.894;15.542;2022-11-14T12:28:40;15.00;99.90
11569;DHT22;5840;46.894;15.542;2022-11-14T12:31:13;14.80;99.90
11569;DHT22;5840;46.894;15.542;2022-11-14T12:33:44;14.70;99.90
11569;DHT22;5840;46.894;15.542;2022-11-14T12:36:14;14.60;99.90
11569;DHT22;5840;46.894;15.542;2022-11-14T12:38:44;14.40;99.90
11569;DHT22;5840;46.894;15.542;2022-11-14T12:41:19;14.30;99.90
11569;DHT22;5840;46.894;15.542;2022-11-14T12:43:50;14.20;99.90
11569;DHT22;5840;46.894;15.542;2022-11-14T12:46:17;14.20;99.90
11569;DHT22;5840;46.894;15.542;2022-11-14T12:48:44;14.10;99.90
11569;DHT22;5840;46.894;15.542;2022-11-14T12:54:45;14.00;99.90
11569;DHT22;5840;46.894;15.542;2022-11-14T12:57:20;13.90;99.90
11569;DHT22;5840;46.894;15.542;2022-11-14T13:00:07;13.90;99.90
11569;DHT22;5840;46.894;15.542;2022-11-14T13:02:55;13.80;99.90
11569;DHT22;5840;46.894;15.542;2022-11-14T13:05:44;13.70;99.90
11569;DHT22;5840;46.894;15.542;2022-11-14T13:08:27;13.70;99.90
11569;DHT22;5840;46.894;15.542;2022-11-14T13:11:33;13.70;99.90
11569;DHT22;5840;46.894;15.542;2022-11-14T13:14:15;13.50;99.90
11569;DHT22;5840;46.894;15.542;2022-11-14T13:17:08;13.30;99.90
11569;DHT22;5840;46.894;15.542;2022-11-14T13:19:53;13.20;99.90
11569;DHT22;5840;46.894;15.542;2022-11-14T13:22:52;13.00;99.90
11569;DHT22;5840;46.894;15.542;2022-11-14T13:25:21;12.80;99.90
11569;DHT22;5840;46.894;15.542;2022-11-14T13:27:49;12.60;99.90
11569;DHT22;5840;46.894;15.542;2022-11-14T13:33:43;12.40;99.90
11569;DHT22;5840;46.894;15.542;2022-11-14T13:36:18;12.30;99.90
11569;DHT22;5840;46.894;15.542;2022-11-14T13:39:17;12.10;99.90
11569;DHT22;5840;46.894;15.542;2022-11-14T13:42:14;12.00;99.90
11569;DHT22;5840;46.894;15.542;2022-11-14T13:47:48;11.80;99.90
11569;DHT22;5840;46.894;15.542;2022-11-14T13:50:25;11.60;99.90
11569;DHT22;5840;46.894;15.542;2022-11-14T13:52:54;11.50;99.90
11569;DHT22;5840;46.894;15.542;2022-11-14T13:55:31;11.30;99.90
11569;DHT22;5840;46.894;15.542;2022-11-14T13:58:19;11.30;99.90
11569;DHT22;5840;46.894;15.542;2022-11-14T14:01:05;11.20;99.90
11569;DHT22;5840;46.894;15.542;2022-11-14T14:03:47;11.10;99.90
11569;DHT22;5840;46.894;15.542;2022-11-14T14:06:31;10.90;99.90
11569;DHT22;5840;46.894;15.542;2022-11-14T14:09:10;10.70;99.90
11569;DHT22;5840;46.894;15.542;2022-11-14T14:11:49;10.60;99.90
11569;DHT22;5840;46.894;15.542;2022-11-14T14:14:32;10.50;99.90
11569;DHT22;5840;46.894;15.542;2022-11-14T14:17:08;10.40;99.90
11569;DHT22;5840;46.894;15.542;2022-11-14T14:19:47;10.30;99.90
11569;DHT22;5840;46.894;15.542;2022-11-14T14:22:26;10.20;99.90
11569;DHT22;5840;46.894;15.542;2022-11-14T14:25:02;10.10;99.90
11569;DHT22;5840;46.894;15.542;2022-11-14T14:27:36;10.10;99.90
11569;DHT22;5840;46.894;15.542;2022-11-14T14:30:08;10.00;99.90
11569;DHT22;5840;46.894;15.542;2022-11-14T14:32:36;9.90;99.90
11569;DHT22;5840;46.894;15.542;2022-11-14T14:35:23;9.80;99.90
11569;DHT22;5840;46.894;15.542;2022-11-14T14:37:54;9.70;99.90
11569;DHT22;5840;46.894;15.542;2022-11-14T14:40:23;9.60;99.90
11569;DHT22;5840;46.894;15.542;2022-11-14T14:42:52;9.40;99.90
11569;DHT22;5840;46.894;15.542;2022-11-14T14:45:21;9.40;99.90
11569;DHT22;5840;46.894;15.542;2022-11-14T14:47:51;9.30;99.90
11569;DHT22;5840;46.894;15.542;2022-11-14T14:50:26;9.20;99.90
11569;DHT22;5840;46.894;15.542;2022-11-14T14:52:57;9.20;99.90
11569;DHT22;5840;46.894;15.542;2022-11-14T14:55:26;9.10;99.90
11569;DHT22;5840;46.894;15.542;2022-11-14T14:57:53;9.10;99.90
11569;DHT22;5840;46.894;15.542;2022-11-14T15:00:23;9.00;99.90
11569;DHT22;5840;46.894;15.542;2022-11-14T15:02:52;8.90;99.90
11569;DHT22;5840;46.894;15.542;2022-11-14T15:05:24;8.90;99.90
11569;DHT22;5840;46.894;15.542;2022-11-14T15:07:54;8.90;99.90
11569;DHT22;5840;46.894;15.542;2022-11-14T15:10:26;8.90;99.90
11569;DHT22;5840;46.894;15.542;2022-11-14T15:12:55;8.80;99.90
11569;DHT22;5840;46.894;15.542;2022-11-14T15:15:23;8.80;99.90
11569;DHT22;5840;46.894;15.542;2022-11-14T15:17:52;8.80;99.90
11569;DHT22;5840;46.894;15.542;2022-11-14T15:20:23;8.80;99.90
11569;DHT22;5840;46.894;15.542;2022-11-14T15:23:18;8.80;99.90
11569;DHT22;5840;46.894;15.542;2022-11-14T15:25:47;8.80;99.90
11569;DHT22;5840;46.894;15.542;2022-11-14T15:28:19;8.80;99.90
11569;DHT22;5840;46.894;15.542;2022-11-14T15:30:56;8.80;99.90
11569;DHT22;5840;46.894;15.542;2022-11-14T15:33:26;8.80;99.90
11569;DHT22;5840;46.894;15.542;2022-11-14T15:36:05;8.80;99.90
11569;DHT22;5840;46.894;15.542;2022-11-14T15:38:32;8.80;99.90
11569;DHT22;5840;46.894;15.542;2022-11-14T15:41:17;8.80;99.90
11569;DHT22;5840;46.894;15.542;2022-11-14T15:43:49;8.80;99.90
11569;DHT22;5840;46.894;15.542;2022-11-14T15:46:41;8.80;99.90
11569;DHT22;5840;46.894;15.542;2022-11-14T15:49:22;8.80;99.90
11569;DHT22;5840;46.894;15.542;2022-11-14T15:51:53;8.90;99.90
11569;DHT22;5840;46.894;15.542;2022-11-14T15:54:24;8.90;99.90
11569;DHT22;5840;46.894;15.542;2022-11-14T15:56:53;8.90;99.90
11569;DHT22;5840;46.894;15.542;2022-11-14T15:59:21;9.00;99.90
11569;DHT22;5840;46.894;15.542;2022-11-14T16:01:50;9.00;99.90
11569;DHT22;5840;46.894;15.542;2022-11-14T16:04:18;9.00;99.90
11569;DHT22;5840;46.894;15.542;2022-11-14T16:06:46;9.00;99.90
11569;DHT22;5840;46.894;15.542;2022-11-14T16:09:15;9.00;99.90
11569;DHT22;5840;46.894;15.542;2022-11-14T16:11:42;9.00;99.90
11569;DHT22;5840;46.894;15.542;2022-11-14T16:14:10;9.00;99.90
11569;DHT22;5840;46.894;15.542;2022-11-14T16:16:37;9.00;99.90
11569;DHT22;5840;46.894;15.542;2022-11-14T16:19:05;9.00;99.90
11569;DHT22;5840;46.894;15.542;2022-11-14T16:21:33;9.00;99.90